createdAt,value
2023-04-05T00:01:26.926Z,101322.00
2023-04-05T00:03:58.815Z,101329.00
2023-04-05T00:06:31.261Z,101321.00
2023-04-05T00:09:04.144Z,101320.00
2023-04-05T00:11:34.109Z,101326.00
2023-04-05T00:14:02.842Z,101316.00
2023-04-05T00:16:31.100Z,101307.00
2023-04-05T00:19:00.556Z,101311.00
2023-04-05T00:21:28.854Z,101310.00
2023-04-05T00:23:59.240Z,101301.00
2023-04-05T00:26:28.115Z,101312.00
2023-04-05T00:28:58.687Z,101306.00
2023-04-05T00:31:26.926Z,101300.00
2023-04-05T00:33:55.384Z,101290.00
2023-04-05T00:36:23.511Z,101294.00
2023-04-05T00:38:52.128Z,101297.00
2023-04-05T00:41:21.048Z,101295.00
2023-04-05T00:43:49.369Z,101297.00
2023-04-05T00:46:17.802Z,101293.00
2023-04-05T00:48:47.711Z,101294.00
2023-04-05T00:51:15.794Z,101296.00
2023-04-05T00:53:45.193Z,101295.00
2023-04-05T00:56:14.654Z,101289.00
2023-04-05T00:58:43.166Z,101286.00
2023-04-05T01:01:18.212Z,101295.00
2023-04-05T01:04:00.240Z,101291.00
2023-04-05T01:06:41.850Z,101289.00
2023-04-05T01:09:33.965Z,101287.00
2023-04-05T01:12:07.037Z,101289.00
2023-04-05T01:14:46.296Z,101295.00
2023-04-05T01:17:14.788Z,101291.00
2023-04-05T01:19:48.292Z,101299.00
2023-04-05T01:22:40.783Z,101298.00
2023-04-05T01:25:28.532Z,101300.00
2023-04-05T01:27:59.463Z,101313.00
2023-04-05T01:30:38.750Z,101312.00
2023-04-05T01:33:27.088Z,101307.00
2023-04-05T01:36:22.410Z,101312.00
2023-04-05T01:38:51.424Z,101312.00
2023-04-05T01:41:19.945Z,101303.00
2023-04-05T01:43:48.992Z,101306.00
2023-04-05T01:46:17.241Z,101302.00
2023-04-05T01:48:45.732Z,101291.00
2023-04-05T01:51:15.290Z,101304.00
2023-04-05T01:53:43.349Z,101302.00
2023-04-05T01:56:11.476Z,101299.00
2023-04-05T01:58:39.558Z,101298.00
2023-04-05T02:01:10.594Z,101296.00
2023-04-05T02:03:38.899Z,101293.00
2023-04-05T02:06:07.380Z,101292.00
2023-04-05T02:08:35.603Z,101286.00
2023-04-05T02:11:03.876Z,101287.00
2023-04-05T02:13:32.263Z,101283.00
2023-04-05T02:16:00.300Z,101281.00
2023-04-05T02:18:32.445Z,101286.00
2023-04-05T02:21:05.668Z,101284.00
2023-04-05T02:23:34.463Z,101286.00
2023-04-05T02:26:02.992Z,101279.00
2023-04-05T02:28:31.851Z,101284.00
2023-04-05T02:31:00.496Z,101282.00
2023-04-05T02:33:30.011Z,101281.00
2023-04-05T02:35:58.148Z,101273.00
2023-04-05T02:38:26.379Z,101272.00
2023-04-05T02:40:55.612Z,101282.00
2023-04-05T02:43:23.650Z,101279.00
2023-04-05T02:45:52.601Z,101273.00
2023-04-05T02:48:21.242Z,101271.00
2023-04-05T02:50:53.230Z,101278.00
2023-04-05T02:53:21.496Z,101275.00
2023-04-05T02:55:58.148Z,101269.00
2023-04-05T02:58:26.317Z,101266.00
2023-04-05T03:00:56.493Z,101261.00
2023-04-05T03:03:32.393Z,101265.00
2023-04-05T03:06:07.443Z,101260.00
2023-04-05T03:08:46.927Z,101257.00
2023-04-05T03:11:17.863Z,101258.00
2023-04-05T03:13:50.726Z,101253.00
2023-04-05T03:16:57.788Z,101253.00
2023-04-05T03:19:35.833Z,101251.00
2023-04-05T03:22:17.523Z,101246.00
2023-04-05T03:24:45.583Z,101246.00
2023-04-05T03:27:15.945Z,101246.00
2023-04-05T03:30:02.851Z,101249.00
2023-04-05T03:32:33.777Z,101244.00
2023-04-05T03:35:10.963Z,101241.00
2023-04-05T03:37:41.633Z,101242.00
2023-04-05T03:40:11.280Z,101235.00
2023-04-05T03:42:39.370Z,101241.00
2023-04-05T03:45:08.927Z,101231.00
2023-04-05T03:47:37.847Z,101231.00
2023-04-05T03:50:09.036Z,101228.00
2023-04-05T03:52:36.991Z,101217.00
2023-04-05T03:55:07.263Z,101223.00
2023-04-05T03:57:39.166Z,101232.00
2023-04-05T04:00:21.319Z,101219.00
2023-04-05T04:03:28.814Z,101225.00
2023-04-05T04:05:57.438Z,101223.00
2023-04-05T04:08:26.625Z,101224.00
2023-04-05T04:10:55.248Z,101221.00
2023-04-05T04:13:26.626Z,101224.00
2023-04-05T04:16:02.621Z,101223.00
2023-04-05T04:18:49.442Z,101225.00
2023-04-05T04:21:22.520Z,101221.00
2023-04-05T04:24:10.892Z,101231.00
2023-04-05T04:27:07.065Z,101232.00
2023-04-05T04:30:04.805Z,101228.00
2023-04-05T04:32:58.985Z,101240.00
2023-04-05T04:35:56.567Z,101233.00
2023-04-05T04:38:35.093Z,101235.00
2023-04-05T04:41:27.085Z,101235.00
2023-04-05T04:44:07.103Z,101237.00
2023-04-05T04:46:44.660Z,101238.00
2023-04-05T04:49:36.425Z,101243.00
2023-04-05T04:52:04.409Z,101238.00
2023-04-05T04:54:34.421Z,101248.00
2023-04-05T04:57:02.801Z,101245.00
2023-04-05T04:59:31.307Z,101247.00
2023-04-05T05:01:59.327Z,101240.00
2023-04-05T05:04:27.482Z,101242.00
2023-04-05T05:06:55.537Z,101247.00
2023-04-05T05:09:23.751Z,101250.00
2023-04-05T05:11:57.229Z,101252.00
2023-04-05T05:14:25.180Z,101252.00
2023-04-05T05:16:54.958Z,101251.00
2023-04-05T05:19:23.258Z,101243.00
2023-04-05T05:21:54.847Z,101259.00
2023-04-05T05:24:23.067Z,101244.00
2023-04-05T05:26:51.584Z,101247.00
2023-04-05T05:29:21.029Z,101241.00
2023-04-05T05:31:50.676Z,101244.00
2023-04-05T05:34:19.854Z,101251.00
2023-04-05T05:36:57.856Z,101248.00
2023-04-05T05:39:25.925Z,101252.00
2023-04-05T05:41:54.267Z,101244.00
2023-04-05T05:44:22.151Z,101245.00
2023-04-05T05:46:50.033Z,101246.00
2023-04-05T05:49:18.240Z,101252.00
2023-04-05T05:51:46.772Z,101247.00
2023-04-05T05:54:14.803Z,101244.00
2023-04-05T05:56:43.143Z,101243.00
2023-04-05T05:59:12.335Z,101241.00
2023-04-05T06:01:43.029Z,101243.00
2023-04-05T06:04:11.036Z,101252.00
2023-04-05T06:06:39.267Z,101257.00
2023-04-05T06:09:07.297Z,101245.00
2023-04-05T06:11:37.111Z,101241.00
2023-04-05T06:14:08.944Z,101250.00
2023-04-05T06:16:36.863Z,101251.00
2023-04-05T06:19:04.973Z,101252.00
2023-04-05T06:21:32.988Z,101246.00
2023-04-05T06:24:01.372Z,101242.00
2023-04-05T06:26:30.298Z,101243.00
2023-04-05T06:28:58.380Z,101251.00
2023-04-05T06:31:35.138Z,101246.00
2023-04-05T06:34:03.834Z,101249.00
2023-04-05T06:36:34.383Z,101245.00
2023-04-05T06:39:02.770Z,101253.00
2023-04-05T06:41:30.948Z,101243.00
2023-04-05T06:43:58.918Z,101249.00
2023-04-05T06:46:26.906Z,101244.00
2023-04-05T06:48:54.846Z,101242.00
2023-04-05T06:51:22.998Z,101239.00
2023-04-05T06:53:50.965Z,101232.00
2023-04-05T06:56:19.375Z,101242.00
2023-04-05T06:58:47.655Z,101237.00
2023-04-05T07:01:15.600Z,101242.00
2023-04-05T07:03:44.122Z,101240.00
2023-04-05T07:06:12.221Z,101243.00
2023-04-05T07:08:40.219Z,101244.00
2023-04-05T07:11:08.083Z,101243.00
2023-04-05T07:13:37.035Z,101241.00
2023-04-05T07:16:05.137Z,101241.00
2023-04-05T07:18:33.256Z,101240.00
2023-04-05T07:21:02.169Z,101238.00
2023-04-05T07:23:30.776Z,101231.00
2023-04-05T07:26:05.030Z,101232.00
2023-04-05T07:28:35.803Z,101233.00
2023-04-05T07:31:05.545Z,101239.00
2023-04-05T07:33:34.471Z,101233.00
2023-04-05T07:36:03.755Z,101239.00
2023-04-05T07:38:31.769Z,101236.00
2023-04-05T07:40:59.948Z,101235.00
2023-04-05T07:43:28.140Z,101232.00
2023-04-05T07:46:03.387Z,101237.00
2023-04-05T07:48:31.629Z,101233.00
2023-04-05T07:51:05.937Z,101226.00
2023-04-05T07:53:34.822Z,101234.00
2023-04-05T07:56:10.496Z,101238.00
2023-04-05T07:58:41.496Z,101234.00
2023-04-05T08:01:11.305Z,101228.00
2023-04-05T08:03:40.438Z,101234.00
2023-04-05T08:06:19.386Z,101230.00
2023-04-05T08:08:48.112Z,101231.00
2023-04-05T08:11:16.127Z,101235.00
2023-04-05T08:13:44.098Z,101231.00
2023-04-05T08:16:12.509Z,101229.00
2023-04-05T08:18:40.684Z,101226.00
2023-04-05T08:21:08.568Z,101233.00
2023-04-05T08:23:36.645Z,101228.00
2023-04-05T08:26:04.605Z,101224.00
2023-04-05T08:28:32.445Z,101225.00
2023-04-05T08:31:00.600Z,101228.00
2023-04-05T08:33:31.354Z,101233.00
2023-04-05T08:36:04.025Z,101223.00
2023-04-05T08:38:32.411Z,101220.00
2023-04-05T08:41:09.844Z,101217.00
2023-04-05T08:44:00.387Z,101226.00
2023-04-05T08:46:32.347Z,101227.00
2023-04-05T08:49:00.860Z,101225.00
2023-04-05T08:51:29.185Z,101216.00
2023-04-05T08:53:57.246Z,101226.00
2023-04-05T08:56:35.421Z,101223.00
2023-04-05T08:59:08.760Z,101233.00
2023-04-05T09:01:44.266Z,101226.00
2023-04-05T09:04:25.200Z,101234.00
2023-04-05T09:06:53.848Z,101222.00
2023-04-05T09:09:22.586Z,101224.00
2023-04-05T09:11:51.551Z,101228.00
2023-04-05T09:14:20.370Z,101225.00
2023-04-05T09:16:48.253Z,101227.00
2023-04-05T09:19:16.440Z,101228.00
2023-04-05T09:22:06.434Z,101228.00
2023-04-05T09:24:43.591Z,101228.00
2023-04-05T09:27:17.010Z,101222.00
2023-04-05T09:29:49.033Z,101228.00
2023-04-05T09:32:21.654Z,101224.00
2023-04-05T09:34:51.758Z,101227.00
2023-04-05T09:37:28.031Z,101223.00
2023-04-05T09:40:04.578Z,101220.00
2023-04-05T09:42:45.068Z,101217.00
2023-04-05T09:45:13.875Z,101221.00
2023-04-05T09:47:57.109Z,101219.00
2023-04-05T09:50:25.323Z,101211.00
2023-04-05T09:53:08.144Z,101210.00
2023-04-05T09:55:36.246Z,101220.00
2023-04-05T09:58:04.380Z,101219.00
2023-04-05T10:00:32.896Z,101218.00
2023-04-05T10:03:01.508Z,101212.00
2023-04-05T10:05:30.296Z,101209.00
2023-04-05T10:07:58.369Z,101207.00
2023-04-05T10:10:26.467Z,101197.00
2023-04-05T10:12:55.086Z,101209.00
2023-04-05T10:15:25.654Z,101214.00
2023-04-05T10:18:01.023Z,101211.00
2023-04-05T10:20:29.641Z,101215.00
2023-04-05T10:23:12.663Z,101205.00
2023-04-05T10:25:53.685Z,101202.00
2023-04-05T10:28:35.413Z,101211.00
2023-04-05T10:31:11.521Z,101216.00
2023-04-05T10:33:52.540Z,101211.00
2023-04-05T10:36:40.317Z,101204.00
2023-04-05T10:39:20.960Z,101203.00
2023-04-05T10:41:53.487Z,101202.00
2023-04-05T10:44:26.220Z,101200.00
2023-04-05T10:46:55.810Z,101199.00
2023-04-05T10:49:44.238Z,101200.00
2023-04-05T10:52:12.475Z,101203.00
2023-04-05T10:54:40.607Z,101202.00
2023-04-05T10:57:10.494Z,101190.00
2023-04-05T10:59:44.884Z,101195.00
2023-04-05T11:02:13.669Z,101186.00
2023-04-05T11:04:42.764Z,101191.00
2023-04-05T11:07:19.009Z,101187.00
2023-04-05T11:09:56.847Z,101184.00
2023-04-05T11:12:46.756Z,101177.00
2023-04-05T11:15:30.226Z,101176.00
2023-04-05T11:18:11.812Z,101173.00
2023-04-05T11:20:56.806Z,101174.00
2023-04-05T11:23:25.837Z,101171.00
2023-04-05T11:25:58.013Z,101172.00
2023-04-05T11:28:37.905Z,101170.00
2023-04-05T11:31:20.408Z,101179.00
2023-04-05T11:33:55.751Z,101172.00
2023-04-05T11:36:33.963Z,101164.00
2023-04-05T11:39:21.521Z,101165.00
2023-04-05T11:42:00.381Z,101159.00
2023-04-05T11:44:48.761Z,101160.00
2023-04-05T11:47:23.501Z,101154.00
2023-04-05T11:49:52.464Z,101157.00
2023-04-05T11:52:22.207Z,101160.00
2023-04-05T11:54:50.290Z,101156.00
2023-04-05T11:57:23.344Z,101155.00
2023-04-05T11:59:52.380Z,101145.00
2023-04-05T12:02:21.471Z,101147.00
2023-04-05T12:04:57.571Z,101144.00
2023-04-05T12:07:29.782Z,101145.00
2023-04-05T12:10:10.122Z,101137.00
2023-04-05T12:12:47.960Z,101138.00
2023-04-05T12:15:21.976Z,101133.00
2023-04-05T12:17:52.152Z,101122.00
2023-04-05T12:20:25.366Z,101129.00
2023-04-05T12:22:57.711Z,101117.00
2023-04-05T12:25:26.248Z,101113.00
2023-04-05T12:27:54.297Z,101117.00
2023-04-05T12:30:23.974Z,101114.00
2023-04-05T12:32:53.782Z,101112.00
2023-04-05T12:35:32.581Z,101112.00
2023-04-05T12:38:05.769Z,101110.00
2023-04-05T12:40:35.844Z,101108.00
2023-04-05T12:43:08.377Z,101100.00
2023-04-05T12:45:40.719Z,101107.00
2023-04-05T12:48:20.872Z,101105.00
2023-04-05T12:50:52.189Z,101104.00
2023-04-05T12:53:22.164Z,101100.00
2023-04-05T12:55:57.271Z,101102.00
2023-04-05T12:58:39.206Z,101089.00
2023-04-05T13:01:07.800Z,101088.00
2023-04-05T13:03:35.853Z,101087.00
2023-04-05T13:06:03.914Z,101085.00
2023-04-05T13:08:32.108Z,101093.00
2023-04-05T13:11:00.231Z,101091.00
2023-04-05T13:13:29.048Z,101082.00
2023-04-05T13:15:57.231Z,101089.00
2023-04-05T13:18:25.176Z,101089.00
2023-04-05T13:20:53.158Z,101085.00
2023-04-05T13:23:21.170Z,101078.00
2023-04-05T13:25:48.894Z,101080.00
2023-04-05T13:28:17.081Z,101078.00
2023-04-05T13:30:45.478Z,101071.00
2023-04-05T13:33:13.770Z,101064.00
2023-04-05T13:35:42.908Z,101076.00
2023-04-05T13:38:11.416Z,101076.00
2023-04-05T13:40:39.646Z,101082.00
2023-04-05T13:43:07.590Z,101073.00
2023-04-05T13:45:35.651Z,101063.00
2023-04-05T13:48:03.766Z,101061.00
2023-04-05T13:50:31.664Z,101055.00
2023-04-05T13:53:01.305Z,101064.00
2023-04-05T13:55:29.281Z,101061.00
2023-04-05T13:57:57.220Z,101060.00
2023-04-05T14:00:25.444Z,101052.00
2023-04-05T14:02:53.800Z,101054.00
2023-04-05T14:05:22.217Z,101055.00
2023-04-05T14:07:50.602Z,101059.00
2023-04-05T14:10:21.825Z,101050.00
2023-04-05T14:12:49.981Z,101056.00
2023-04-05T14:15:18.215Z,101049.00
2023-04-05T14:17:46.303Z,101042.00
2023-04-05T14:20:14.452Z,101044.00
2023-04-05T14:22:42.685Z,101040.00
2023-04-05T14:25:11.042Z,101038.00
2023-04-05T14:27:42.735Z,101033.00
2023-04-05T14:30:11.601Z,101029.00
2023-04-05T14:32:40.456Z,101031.00
2023-04-05T14:35:09.432Z,101027.00
2023-04-05T14:37:39.813Z,101026.00
2023-04-05T14:40:08.027Z,101027.00
2023-04-05T14:42:47.559Z,101023.00
2023-04-05T14:45:17.129Z,101019.00
2023-04-05T14:47:45.127Z,101022.00
2023-04-05T14:50:13.234Z,101018.00
2023-04-05T14:52:41.428Z,101014.00
2023-04-05T14:55:09.860Z,101018.00
2023-04-05T14:57:37.946Z,101015.00
2023-04-05T15:00:07.542Z,101018.00
2023-04-05T15:02:36.511Z,101024.00
2023-04-05T15:05:06.156Z,101023.00
2023-04-05T15:07:34.412Z,101018.00
2023-04-05T15:10:02.535Z,101018.00
2023-04-05T15:12:31.053Z,101016.00
2023-04-05T15:14:59.363Z,101010.00
2023-04-05T15:17:27.378Z,101010.00
2023-04-05T15:19:55.492Z,101011.00
2023-04-05T15:22:24.701Z,101005.00
2023-04-05T15:24:52.594Z,101003.00
2023-04-05T15:27:21.499Z,101000.00
2023-04-05T15:29:49.581Z,101000.00
2023-04-05T15:32:17.598Z,101002.00
2023-04-05T15:34:46.553Z,101004.00
2023-04-05T15:37:14.920Z,101000.00
2023-04-05T15:39:42.929Z,100996.00
2023-04-05T15:42:10.980Z,101001.00
2023-04-05T15:44:39.212Z,100994.00
2023-04-05T15:47:11.195Z,100991.00
2023-04-05T15:49:39.208Z,100992.00
2023-04-05T15:52:07.283Z,100997.00
2023-04-05T15:54:35.550Z,100997.00
2023-04-05T15:57:03.629Z,100993.00
2023-04-05T15:59:31.747Z,100991.00
2023-04-05T16:01:59.860Z,100991.00
2023-04-05T16:04:28.328Z,100991.00
2023-04-05T16:06:56.602Z,100985.00
2023-04-05T16:09:27.795Z,100986.00
2023-04-05T16:11:56.231Z,100979.00
2023-04-05T16:14:24.422Z,100985.00
2023-04-05T16:16:54.273Z,100978.00
2023-04-05T16:19:23.687Z,100973.00
2023-04-05T16:21:53.151Z,100972.00
2023-04-05T16:24:21.486Z,100973.00
2023-04-05T16:26:49.627Z,100974.00
2023-04-05T16:29:17.999Z,100978.00
2023-04-05T16:31:47.725Z,100966.00
2023-04-05T16:34:16.481Z,100981.00
2023-04-05T16:36:44.768Z,100971.00
2023-04-05T16:39:13.038Z,100975.00
2023-04-05T16:41:41.081Z,100967.00
2023-04-05T16:44:09.540Z,100965.00
2023-04-05T16:46:37.761Z,100969.00
2023-04-05T16:49:06.179Z,100965.00
2023-04-05T16:51:36.473Z,100968.00
2023-04-05T16:54:04.940Z,100962.00
2023-04-05T16:56:33.027Z,100960.00
2023-04-05T16:59:01.700Z,100973.00
2023-04-05T17:01:31.768Z,100969.00
2023-04-05T17:04:00.897Z,100971.00
2023-04-05T17:06:29.367Z,100962.00
2023-04-05T17:08:57.610Z,100960.00
2023-04-05T17:11:26.396Z,100963.00
2023-04-05T17:13:54.574Z,100954.00
2023-04-05T17:16:23.800Z,100954.00
2023-04-05T17:18:51.922Z,100939.00
2023-04-05T17:21:20.156Z,100955.00
2023-04-05T17:23:48.191Z,100946.00
2023-04-05T17:26:16.070Z,100944.00
2023-04-05T17:28:44.151Z,100949.00
2023-04-05T17:31:12.234Z,100952.00
2023-04-05T17:33:41.123Z,100945.00
2023-04-05T17:36:09.135Z,100941.00
2023-04-05T17:38:38.169Z,100943.00
2023-04-05T17:41:06.239Z,100935.00
2023-04-05T17:43:34.325Z,100938.00
2023-04-05T17:46:03.546Z,100934.00
2023-04-05T17:48:33.237Z,100930.00
2023-04-05T17:51:06.883Z,100937.00
2023-04-05T17:53:35.761Z,100934.00
2023-04-05T17:56:04.044Z,100942.00
2023-04-05T17:58:32.845Z,100942.00
2023-04-05T18:01:00.880Z,100937.00
2023-04-05T18:03:29.701Z,100934.00
2023-04-05T18:05:57.998Z,100936.00
2023-04-05T18:08:26.818Z,100944.00
2023-04-05T18:10:58.607Z,100937.00
2023-04-05T18:13:26.663Z,100939.00
2023-04-05T18:16:00.961Z,100938.00
2023-04-05T18:18:29.277Z,100948.00
2023-04-05T18:21:05.512Z,100949.00
2023-04-05T18:23:33.585Z,100949.00
2023-04-05T18:26:07.626Z,100944.00
2023-04-05T18:28:36.054Z,100951.00
2023-04-05T18:31:03.973Z,100950.00
2023-04-05T18:33:31.998Z,100953.00
2023-04-05T18:36:00.249Z,100952.00
2023-04-05T18:38:28.273Z,100959.00
2023-04-05T18:41:07.229Z,100955.00
2023-04-05T18:43:35.325Z,100964.00
2023-04-05T18:46:03.631Z,100956.00
2023-04-05T18:48:34.456Z,100954.00
2023-04-05T18:51:02.640Z,100952.00
2023-04-05T18:53:30.898Z,100957.00
2023-04-05T18:55:59.218Z,100965.00
2023-04-05T18:58:27.316Z,100954.00
2023-04-05T19:00:55.651Z,100956.00
2023-04-05T19:03:23.875Z,100957.00
2023-04-05T19:05:52.818Z,100953.00
2023-04-05T19:08:21.030Z,100958.00
2023-04-05T19:10:49.023Z,100969.00
2023-04-05T19:13:17.179Z,100961.00
2023-04-05T19:15:46.479Z,100963.00
2023-04-05T19:18:14.705Z,100961.00
2023-04-05T19:20:42.972Z,100961.00
2023-04-05T19:23:11.074Z,100970.00
2023-04-05T19:25:39.530Z,100974.00
2023-04-05T19:28:07.888Z,100967.00
2023-04-05T19:30:35.991Z,100969.00
2023-04-05T19:33:04.462Z,100968.00
2023-04-05T19:35:32.821Z,100966.00
2023-04-05T19:38:01.117Z,100973.00
2023-04-05T19:40:29.321Z,100953.00
2023-04-05T19:42:59.356Z,100965.00
2023-04-05T19:45:29.868Z,100963.00
2023-04-05T19:47:59.723Z,100956.00
2023-04-05T19:50:47.709Z,100948.00
2023-04-05T19:53:41.934Z,100957.00
2023-04-05T19:56:22.492Z,100951.00
2023-04-05T19:59:02.526Z,100944.00
2023-04-05T20:01:51.399Z,100940.00
2023-04-05T20:04:22.661Z,100942.00
2023-04-05T20:06:55.575Z,100948.00
2023-04-05T20:09:29.380Z,100934.00
2023-04-05T20:12:03.026Z,100937.00
2023-04-05T20:14:37.834Z,100941.00
2023-04-05T20:17:06.751Z,100936.00
2023-04-05T20:19:35.221Z,100929.00
2023-04-05T20:22:06.386Z,100918.00
2023-04-05T20:24:35.243Z,100930.00
2023-04-05T20:27:04.308Z,100928.00
2023-04-05T20:29:32.805Z,100918.00
2023-04-05T20:32:02.439Z,100919.00
2023-04-05T20:34:33.440Z,100921.00
2023-04-05T20:37:05.419Z,100925.00
2023-04-05T20:39:34.147Z,100923.00
2023-04-05T20:42:04.271Z,100921.00
2023-04-05T20:44:32.268Z,100919.00
2023-04-05T20:47:01.594Z,100927.00
2023-04-05T20:49:30.278Z,100913.00
2023-04-05T20:51:58.644Z,100921.00
2023-04-05T20:54:26.948Z,100919.00
2023-04-05T20:56:55.143Z,100915.00
2023-04-05T20:59:23.467Z,100925.00
2023-04-05T21:01:51.619Z,100922.00
2023-04-05T21:04:19.636Z,100907.00
2023-04-05T21:06:47.985Z,100906.00
2023-04-05T21:09:16.345Z,100910.00
2023-04-05T21:11:44.818Z,100910.00
2023-04-05T21:14:12.882Z,100906.00
2023-04-05T21:16:41.119Z,100910.00
2023-04-05T21:19:09.879Z,100903.00
2023-04-05T21:21:38.151Z,100913.00
2023-04-05T21:24:06.789Z,100902.00
2023-04-05T21:26:35.031Z,100909.00
2023-04-05T21:29:03.379Z,100905.00
2023-04-05T21:31:31.617Z,100906.00
2023-04-05T21:33:59.845Z,100911.00
2023-04-05T21:36:27.833Z,100912.00
2023-04-05T21:38:56.296Z,100901.00
2023-04-05T21:41:24.604Z,100909.00
2023-04-05T21:43:52.645Z,100910.00
2023-04-05T21:46:20.947Z,100902.00
2023-04-05T21:48:48.899Z,100910.00
2023-04-05T21:51:18.144Z,100911.00
2023-04-05T21:53:46.509Z,100908.00
2023-04-05T21:56:15.678Z,100908.00
2023-04-05T21:58:44.130Z,100908.00
2023-04-05T22:01:12.635Z,100899.00
2023-04-05T22:03:41.263Z,100904.00
2023-04-05T22:06:09.480Z,100909.00
2023-04-05T22:08:37.796Z,100906.00
2023-04-05T22:11:06.773Z,100901.00
2023-04-05T22:13:34.602Z,100908.00
2023-04-05T22:16:02.726Z,100904.00
2023-04-05T22:18:30.786Z,100905.00
2023-04-05T22:20:58.990Z,100905.00
2023-04-05T22:23:26.962Z,100898.00
2023-04-05T22:25:54.977Z,100906.00
2023-04-05T22:28:23.364Z,100898.00
2023-04-05T22:30:51.702Z,100904.00
2023-04-05T22:33:19.916Z,100905.00
2023-04-05T22:35:48.299Z,100900.00
2023-04-05T22:38:16.724Z,100895.00
2023-04-05T22:40:45.570Z,100900.00
2023-04-05T22:43:14.133Z,100889.00
2023-04-05T22:45:42.385Z,100894.00
2023-04-05T22:48:11.706Z,100896.00
2023-04-05T22:50:39.813Z,100895.00
2023-04-05T22:53:07.805Z,100899.00
2023-04-05T22:55:37.637Z,100900.00
2023-04-05T22:58:06.215Z,100897.00
2023-04-05T23:00:34.565Z,100895.00
2023-04-05T23:03:02.760Z,100896.00
2023-04-05T23:05:30.991Z,100894.00
2023-04-05T23:07:59.465Z,100892.00
2023-04-05T23:10:27.693Z,100890.00
2023-04-05T23:12:56.711Z,100884.00
2023-04-05T23:15:24.826Z,100873.00
2023-04-05T23:17:53.092Z,100874.00
2023-04-05T23:20:21.357Z,100866.00
2023-04-05T23:22:49.471Z,100880.00
2023-04-05T23:25:17.466Z,100864.00
2023-04-05T23:27:45.939Z,100873.00
2023-04-05T23:30:14.177Z,100864.00
2023-04-05T23:32:42.322Z,100870.00
2023-04-05T23:35:10.775Z,100861.00
2023-04-05T23:37:41.681Z,100870.00
2023-04-05T23:40:10.324Z,100862.00
2023-04-05T23:42:38.668Z,100858.00
2023-04-05T23:45:10.760Z,100854.00
2023-04-05T23:47:41.799Z,100853.00
2023-04-05T23:50:10.636Z,100851.00
2023-04-05T23:52:38.561Z,100854.00
2023-04-05T23:55:07.327Z,100844.00
2023-04-05T23:57:35.888Z,100847.00
